sensor_id;sensor_type;location;lat;lon;timestamp;pressure;altitude;pressure_sealevel;temperature;humidity
75146;BME280;63641;46.526;24.612;2023-04-15T00:01:10;96405.06;;;7.15;69.08
75146;BME280;63641;46.526;24.612;2023-04-15T00:03:37;96393.28;;;7.06;69.16
75146;BME280;63641;46.526;24.612;2023-04-15T00:06:05;96398.66;;;7.06;69.16
75146;BME280;63641;46.526;24.612;2023-04-15T00:08:32;96407.59;;;7.01;69.36
75146;BME280;63641;46.526;24.612;2023-04-15T00:10:59;96394.19;;;6.96;69.48
75146;BME280;63641;46.526;24.612;2023-04-15T00:13:28;96400.69;;;6.90;69.51
75146;BME280;63641;46.526;24.612;2023-04-15T00:15:55;96413.59;;;6.88;69.46
75146;BME280;63641;46.526;24.612;2023-04-15T00:18:23;96405.28;;;6.85;69.72
75146;BME280;63641;46.526;24.612;2023-04-15T00:20:50;96413.69;;;6.78;69.79
75146;BME280;63641;46.526;24.612;2023-04-15T00:23:18;96414.25;;;6.75;69.75
75146;BME280;63641;46.526;24.612;2023-04-15T00:25:45;96426.34;;;6.72;69.72
75146;BME280;63641;46.526;24.612;2023-04-15T00:28:12;96431.47;;;6.69;69.98
75146;BME280;63641;46.526;24.612;2023-04-15T00:30:39;96426.63;;;6.66;70.11
75146;BME280;63641;46.526;24.612;2023-04-15T00:33:05;96427.19;;;6.63;70.19
75146;BME280;63641;46.526;24.612;2023-04-15T00:35:33;96433.66;;;6.62;70.37
75146;BME280;63641;46.526;24.612;2023-04-15T00:38:02;96435.59;;;6.56;70.25
75146;BME280;63641;46.526;24.612;2023-04-15T00:40:30;96431.03;;;6.51;70.60
75146;BME280;63641;46.526;24.612;2023-04-15T00:42:57;96425.16;;;6.44;70.71
75146;BME280;63641;46.526;24.612;2023-04-15T00:45:24;96431.34;;;6.45;70.96
75146;BME280;63641;46.526;24.612;2023-04-15T00:47:51;96417.41;;;6.33;70.43
75146;BME280;63641;46.526;24.612;2023-04-15T00:50:32;96424.13;;;6.35;70.57
75146;BME280;63641;46.526;24.612;2023-04-15T00:52:58;96418.50;;;6.32;70.68
75146;BME280;63641;46.526;24.612;2023-04-15T00:55:25;96419.34;;;6.27;70.74
75146;BME280;63641;46.526;24.612;2023-04-15T00:57:52;96416.91;;;6.25;70.63
75146;BME280;63641;46.526;24.612;2023-04-15T01:00:19;96411.28;;;6.22;70.91
75146;BME280;63641;46.526;24.612;2023-04-15T01:02:46;96415.06;;;6.21;70.83
75146;BME280;63641;46.526;24.612;2023-04-15T01:05:13;96414.78;;;6.17;71.07
75146;BME280;63641;46.526;24.612;2023-04-15T01:07:42;96412.66;;;6.14;71.18
75146;BME280;63641;46.526;24.612;2023-04-15T01:10:09;96421.00;;;6.13;71.36
75146;BME280;63641;46.526;24.612;2023-04-15T01:12:36;96409.72;;;6.11;71.47
75146;BME280;63641;46.526;24.612;2023-04-15T01:15:03;96412.44;;;6.05;71.36
75146;BME280;63641;46.526;24.612;2023-04-15T01:17:31;96413.25;;;6.01;71.58
75146;BME280;63641;46.526;24.612;2023-04-15T01:19:58;96400.63;;;6.01;71.56
75146;BME280;63641;46.526;24.612;2023-04-15T01:22:26;96406.28;;;5.95;71.75
75146;BME280;63641;46.526;24.612;2023-04-15T01:24:57;96413.25;;;5.96;71.75
75146;BME280;63641;46.526;24.612;2023-04-15T01:27:27;96410.03;;;5.89;71.72
75146;BME280;63641;46.526;24.612;2023-04-15T01:29:54;96406.28;;;5.85;71.74
75146;BME280;63641;46.526;24.612;2023-04-15T01:32:21;96408.97;;;5.85;71.60
75146;BME280;63641;46.526;24.612;2023-04-15T01:34:48;96404.16;;;5.81;71.68
75146;BME280;63641;46.526;24.612;2023-04-15T01:37:15;96407.13;;;5.80;71.63
75146;BME280;63641;46.526;24.612;2023-04-15T01:39:41;96405.78;;;5.77;71.92
75146;BME280;63641;46.526;24.612;2023-04-15T01:42:08;96412.50;;;5.75;72.20
75146;BME280;63641;46.526;24.612;2023-04-15T01:44:35;96414.09;;;5.76;72.36
75146;BME280;63641;46.526;24.612;2023-04-15T01:47:01;96417.06;;;5.74;72.35
75146;BME280;63641;46.526;24.612;2023-04-15T01:49:28;96416.81;;;5.71;72.52
75146;BME280;63641;46.526;24.612;2023-04-15T01:51:55;96415.22;;;5.65;72.68
75146;BME280;63641;46.526;24.612;2023-04-15T01:54:21;96415.47;;;5.63;72.43
75146;BME280;63641;46.526;24.612;2023-04-15T01:56:48;96407.97;;;5.55;72.37
75146;BME280;63641;46.526;24.612;2023-04-15T01:59:15;96416.03;;;5.55;72.08
75146;BME280;63641;46.526;24.612;2023-04-15T02:01:42;96423.81;;;5.51;71.96
75146;BME280;63641;46.526;24.612;2023-04-15T02:04:09;96423.81;;;5.46;72.36
75146;BME280;63641;46.526;24.612;2023-04-15T02:06:42;96424.34;;;5.43;72.40
75146;BME280;63641;46.526;24.612;2023-04-15T02:09:09;96419.25;;;5.37;72.16
75146;BME280;63641;46.526;24.612;2023-04-15T02:11:36;96424.63;;;5.37;72.44
75146;BME280;63641;46.526;24.612;2023-04-15T02:14:03;96429.72;;;5.33;72.23
75146;BME280;63641;46.526;24.612;2023-04-15T02:16:32;96417.13;;;5.28;72.37
75146;BME280;63641;46.526;24.612;2023-04-15T02:19:00;96406.16;;;5.20;72.35
75146;BME280;63641;46.526;24.612;2023-04-15T02:21:27;96413.66;;;5.23;72.01
75146;BME280;63641;46.526;24.612;2023-04-15T02:23:54;96402.66;;;5.19;72.34
75146;BME280;63641;46.526;24.612;2023-04-15T02:26:21;96404.00;;;5.17;72.38
75146;BME280;63641;46.526;24.612;2023-04-15T02:28:48;96403.72;;;5.18;72.68
75146;BME280;63641;46.526;24.612;2023-04-15T02:31:16;96389.53;;;5.13;72.21
75146;BME280;63641;46.526;24.612;2023-04-15T02:33:44;96398.63;;;5.12;72.39
75146;BME280;63641;46.526;24.612;2023-04-15T02:36:10;96396.50;;;5.08;72.68
75146;BME280;63641;46.526;24.612;2023-04-15T02:38:37;96398.63;;;5.06;72.66
75146;BME280;63641;46.526;24.612;2023-04-15T02:41:06;96401.06;;;5.03;72.83
75146;BME280;63641;46.526;24.612;2023-04-15T02:43:34;96398.09;;;4.99;73.02
75146;BME280;63641;46.526;24.612;2023-04-15T02:46:00;96402.13;;;5.02;72.78
75146;BME280;63641;46.526;24.612;2023-04-15T02:48:27;96394.91;;;4.97;72.84
75146;BME280;63641;46.526;24.612;2023-04-15T02:51:10;96395.94;;;4.96;73.00
75146;BME280;63641;46.526;24.612;2023-04-15T02:53:37;96397.31;;;4.94;72.76
75146;BME280;63641;46.526;24.612;2023-04-15T02:56:03;96401.03;;;4.93;72.30
75146;BME280;63641;46.526;24.612;2023-04-15T02:58:31;96390.59;;;4.86;72.44
75146;BME280;63641;46.526;24.612;2023-04-15T03:00:58;96394.06;;;4.81;72.59
75146;BME280;63641;46.526;24.612;2023-04-15T03:03:25;96399.16;;;4.78;72.68
75146;BME280;63641;46.526;24.612;2023-04-15T03:05:53;96405.03;;;4.75;72.47
75146;BME280;63641;46.526;24.612;2023-04-15T03:08:20;96408.28;;;4.72;72.38
75146;BME280;63641;46.526;24.612;2023-04-15T03:10:48;96407.19;;;4.68;72.33
75146;BME280;63641;46.526;24.612;2023-04-15T03:13:14;96410.13;;;4.61;72.18
75146;BME280;63641;46.526;24.612;2023-04-15T03:15:41;96409.84;;;4.57;72.54
75146;BME280;63641;46.526;24.612;2023-04-15T03:18:08;96422.19;;;4.58;72.49
75146;BME280;63641;46.526;24.612;2023-04-15T03:20:34;96414.66;;;4.55;72.28
75146;BME280;63641;46.526;24.612;2023-04-15T03:23:02;96413.06;;;4.49;72.27
75146;BME280;63641;46.526;24.612;2023-04-15T03:25:28;96420.03;;;4.50;72.30
75146;BME280;63641;46.526;24.612;2023-04-15T03:27:55;96433.13;;;4.47;72.31
75146;BME280;63641;46.526;24.612;2023-04-15T03:30:22;96418.63;;;4.38;72.22
75146;BME280;63641;46.526;24.612;2023-04-15T03:32:49;96426.66;;;4.38;72.29
75146;BME280;63641;46.526;24.612;2023-04-15T03:35:16;96433.63;;;4.33;72.35
75146;BME280;63641;46.526;24.612;2023-04-15T03:37:43;96440.34;;;4.36;72.22
75146;BME280;63641;46.526;24.612;2023-04-15T03:40:10;96447.00;;;4.28;72.37
75146;BME280;63641;46.526;24.612;2023-04-15T03:42:36;96446.19;;;4.28;72.60
75146;BME280;63641;46.526;24.612;2023-04-15T03:45:03;96424.47;;;4.14;72.42
75146;BME280;63641;46.526;24.612;2023-04-15T03:47:30;96443.75;;;4.21;72.53
75146;BME280;63641;46.526;24.612;2023-04-15T03:49:57;96437.31;;;4.17;72.51
75146;BME280;63641;46.526;24.612;2023-04-15T03:52:24;96450.44;;;4.19;72.57
75146;BME280;63641;46.526;24.612;2023-04-15T03:54:51;96441.88;;;4.17;72.96
75146;BME280;63641;46.526;24.612;2023-04-15T03:57:18;96445.09;;;4.19;73.01
75146;BME280;63641;46.526;24.612;2023-04-15T03:59:44;96449.63;;;4.18;73.03
75146;BME280;63641;46.526;24.612;2023-04-15T04:02:11;96460.34;;;4.23;72.86
75146;BME280;63641;46.526;24.612;2023-04-15T04:04:38;96460.63;;;4.22;72.90
75146;BME280;63641;46.526;24.612;2023-04-15T04:07:05;96457.94;;;4.22;73.18
75146;BME280;63641;46.526;24.612;2023-04-15T04:09:32;96472.44;;;4.26;73.02
75146;BME280;63641;46.526;24.612;2023-04-15T04:11:58;96452.03;;;4.20;72.85
75146;BME280;63641;46.526;24.612;2023-04-15T04:14:25;96456.88;;;4.23;73.11
75146;BME280;63641;46.526;24.612;2023-04-15T04:16:55;96451.00;;;4.26;73.29
75146;BME280;63641;46.526;24.612;2023-04-15T04:19:23;96446.16;;;4.23;73.44
75146;BME280;63641;46.526;24.612;2023-04-15T04:21:50;96452.59;;;4.27;73.43
75146;BME280;63641;46.526;24.612;2023-04-15T04:24:17;96441.38;;;4.25;73.51
75146;BME280;63641;46.526;24.612;2023-04-15T04:26:43;96421.78;;;4.19;73.76
75146;BME280;63641;46.526;24.612;2023-04-15T04:29:10;96454.53;;;4.31;73.56
75146;BME280;63641;46.526;24.612;2023-04-15T04:31:37;96441.38;;;4.25;73.85
75146;BME280;63641;46.526;24.612;2023-04-15T04:34:04;96455.56;;;4.30;73.95
75146;BME280;63641;46.526;24.612;2023-04-15T04:36:31;96454.25;;;4.33;74.00
75146;BME280;63641;46.526;24.612;2023-04-15T04:38:58;96455.03;;;4.33;74.05
75146;BME280;63641;46.526;24.612;2023-04-15T04:41:25;96451.06;;;4.41;74.21
75146;BME280;63641;46.526;24.612;2023-04-15T04:43:52;96456.69;;;4.45;74.50
75146;BME280;63641;46.526;24.612;2023-04-15T04:46:18;96473.03;;;4.48;74.71
75146;BME280;63641;46.526;24.612;2023-04-15T04:48:46;96466.09;;;4.47;74.71
75146;BME280;63641;46.526;24.612;2023-04-15T04:51:12;96465.81;;;4.49;75.00
75146;BME280;63641;46.526;24.612;2023-04-15T04:53:39;96466.13;;;4.57;75.25
75146;BME280;63641;46.526;24.612;2023-04-15T04:56:06;96464.53;;;4.62;74.88
75146;BME280;63641;46.526;24.612;2023-04-15T04:58:32;96468.56;;;4.69;75.02
75146;BME280;63641;46.526;24.612;2023-04-15T05:00:59;96466.69;;;4.70;75.01
75146;BME280;63641;46.526;24.612;2023-04-15T05:03:26;96460.00;;;4.72;75.46
75146;BME280;63641;46.526;24.612;2023-04-15T05:05:53;96467.22;;;4.77;75.21
75146;BME280;63641;46.526;24.612;2023-04-15T05:08:20;96458.13;;;4.78;75.39
75146;BME280;63641;46.526;24.612;2023-04-15T05:10:47;96469.94;;;4.87;75.43
75146;BME280;63641;46.526;24.612;2023-04-15T05:13:13;96469.94;;;4.92;75.36
75146;BME280;63641;46.526;24.612;2023-04-15T05:15:40;96462.97;;;4.91;75.51
75146;BME280;63641;46.526;24.612;2023-04-15T05:18:08;96464.59;;;4.97;75.66
75146;BME280;63641;46.526;24.612;2023-04-15T05:20:35;96458.69;;;5.05;75.67
75146;BME280;63641;46.526;24.612;2023-04-15T05:23:02;96462.72;;;5.08;75.99
75146;BME280;63641;46.526;24.612;2023-04-15T05:25:29;96468.63;;;5.15;76.06
75146;BME280;63641;46.526;24.612;2023-04-15T05:27:55;96472.13;;;5.21;76.14
75146;BME280;63641;46.526;24.612;2023-04-15T05:30:22;96475.84;;;5.30;76.44
75146;BME280;63641;46.526;24.612;2023-04-15T05:32:49;96467.84;;;5.35;76.60
75146;BME280;63641;46.526;24.612;2023-04-15T05:35:15;96467.28;;;5.43;76.68
75146;BME280;63641;46.526;24.612;2023-04-15T05:37:42;96465.66;;;5.47;76.63
75146;BME280;63641;46.526;24.612;2023-04-15T05:40:09;96463.00;;;5.52;76.71
75146;BME280;63641;46.526;24.612;2023-04-15T05:42:36;96449.56;;;5.57;76.82
75146;BME280;63641;46.526;24.612;2023-04-15T05:45:03;96468.88;;;5.70;77.04
75146;BME280;63641;46.526;24.612;2023-04-15T05:47:35;96480.13;;;5.82;77.12
75146;BME280;63641;46.526;24.612;2023-04-15T05:50:03;96474.75;;;5.87;77.24
75146;BME280;63641;46.526;24.612;2023-04-15T05:52:30;96476.38;;;5.98;77.27
75146;BME280;63641;46.526;24.612;2023-04-15T05:54:57;96483.31;;;6.10;77.42
75146;BME280;63641;46.526;24.612;2023-04-15T05:57:23;96470.97;;;6.09;77.30
75146;BME280;63641;46.526;24.612;2023-04-15T05:59:50;96488.63;;;6.25;77.10
75146;BME280;63641;46.526;24.612;2023-04-15T06:02:18;96487.53;;;6.36;77.42
75146;BME280;63641;46.526;24.612;2023-04-15T06:04:45;96487.19;;;6.48;77.25
75146;BME280;63641;46.526;24.612;2023-04-15T06:07:12;96483.16;;;6.56;77.39
75146;BME280;63641;46.526;24.612;2023-04-15T06:09:38;96479.09;;;6.63;77.72
75146;BME280;63641;46.526;24.612;2023-04-15T06:12:06;96487.34;;;6.77;77.66
75146;BME280;63641;46.526;24.612;2023-04-15T06:14:37;96491.56;;;6.93;77.42
75146;BME280;63641;46.526;24.612;2023-04-15T06:17:05;96484.78;;;7.01;77.72
75146;BME280;63641;46.526;24.612;2023-04-15T06:19:32;96486.88;;;7.14;77.61
75146;BME280;63641;46.526;24.612;2023-04-15T06:22:00;96496.19;;;7.27;77.75
75146;BME280;63641;46.526;24.612;2023-04-15T06:24:27;96491.53;;;7.38;77.56
75146;BME280;63641;46.526;24.612;2023-04-15T06:26:54;96500.84;;;7.50;77.43
75146;BME280;63641;46.526;24.612;2023-04-15T06:29:21;96488.41;;;7.60;77.39
75146;BME280;63641;46.526;24.612;2023-04-15T06:31:48;96502.28;;;7.72;77.50
75146;BME280;63641;46.526;24.612;2023-04-15T06:34:15;96498.41;;;7.83;77.33
75146;BME280;63641;46.526;24.612;2023-04-15T06:36:42;96491.34;;;7.92;77.37
75146;BME280;63641;46.526;24.612;2023-04-15T06:39:09;96497.91;;;8.10;77.03
75146;BME280;63641;46.526;24.612;2023-04-15T06:41:36;96504.41;;;8.28;76.73
75146;BME280;63641;46.526;24.612;2023-04-15T06:44:02;96506.41;;;8.46;76.22
75146;BME280;63641;46.526;24.612;2023-04-15T06:46:29;96500.56;;;8.63;76.06
75146;BME280;63641;46.526;24.612;2023-04-15T06:48:57;96502.41;;;8.87;75.71
75146;BME280;63641;46.526;24.612;2023-04-15T06:51:24;96498.84;;;9.10;75.12
75146;BME280;63641;46.526;24.612;2023-04-15T06:53:52;96510.56;;;9.38;74.82
75146;BME280;63641;46.526;24.612;2023-04-15T06:56:19;96508.50;;;9.68;74.19
75146;BME280;63641;46.526;24.612;2023-04-15T06:58:46;96501.59;;;9.95;73.36
75146;BME280;63641;46.526;24.612;2023-04-15T07:01:12;96518.78;;;10.31;72.55
75146;BME280;63641;46.526;24.612;2023-04-15T07:03:39;96514.38;;;10.63;71.84
75146;BME280;63641;46.526;24.612;2023-04-15T07:06:07;96510.66;;;10.86;70.62
75146;BME280;63641;46.526;24.612;2023-04-15T07:08:34;96519.13;;;11.21;69.65
75146;BME280;63641;46.526;24.612;2023-04-15T07:11:01;96516.34;;;11.49;69.06
75146;BME280;63641;46.526;24.612;2023-04-15T07:13:30;96510.59;;;11.73;68.30
75146;BME280;63641;46.526;24.612;2023-04-15T07:15:57;96515.63;;;12.02;68.34
75146;BME280;63641;46.526;24.612;2023-04-15T07:18:24;96520.22;;;12.32;67.15
75146;BME280;63641;46.526;24.612;2023-04-15T07:20:51;96519.09;;;12.56;66.36
75146;BME280;63641;46.526;24.612;2023-04-15T07:23:18;96516.41;;;12.73;65.41
75146;BME280;63641;46.526;24.612;2023-04-15T07:25:44;96521.09;;;12.99;64.75
75146;BME280;63641;46.526;24.612;2023-04-15T07:28:11;96525.81;;;13.24;64.37
75146;BME280;63641;46.526;24.612;2023-04-15T07:30:38;96514.97;;;13.42;63.60
75146;BME280;63641;46.526;24.612;2023-04-15T07:33:05;96516.56;;;13.60;63.37
75146;BME280;63641;46.526;24.612;2023-04-15T07:35:35;96524.72;;;13.86;62.59
75146;BME280;63641;46.526;24.612;2023-04-15T07:38:02;96528.81;;;14.10;62.05
75146;BME280;63641;46.526;24.612;2023-04-15T07:40:29;96535.97;;;14.32;61.40
75146;BME280;63641;46.526;24.612;2023-04-15T07:42:56;96529.69;;;14.48;61.00
75146;BME280;63641;46.526;24.612;2023-04-15T07:45:23;96525.66;;;14.63;60.27
75146;BME280;63641;46.526;24.612;2023-04-15T07:47:50;96524.13;;;14.83;60.17
75146;BME280;63641;46.526;24.612;2023-04-15T07:50:17;96529.69;;;14.95;59.28
75146;BME280;63641;46.526;24.612;2023-04-15T07:52:45;96531.47;;;14.91;58.85
75146;BME280;63641;46.526;24.612;2023-04-15T07:55:11;96526.38;;;14.81;58.47
75146;BME280;63641;46.526;24.612;2023-04-15T07:57:38;96537.28;;;14.81;58.41
75146;BME280;63641;46.526;24.612;2023-04-15T08:00:08;96523.31;;;14.83;57.79
75146;BME280;63641;46.526;24.612;2023-04-15T08:02:35;96518.97;;;14.90;57.36
75146;BME280;63641;46.526;24.612;2023-04-15T08:05:09;96523.59;;;15.19;57.04
75146;BME280;63641;46.526;24.612;2023-04-15T08:07:38;96525.34;;;15.45;55.89
75146;BME280;63641;46.526;24.612;2023-04-15T08:10:05;96522.78;;;15.69;55.70
75146;BME280;63641;46.526;24.612;2023-04-15T08:12:32;96528.91;;;15.87;55.07
75146;BME280;63641;46.526;24.612;2023-04-15T08:15:00;96521.31;;;16.05;55.04
75146;BME280;63641;46.526;24.612;2023-04-15T08:17:27;96518.00;;;16.33;54.75
75146;BME280;63641;46.526;24.612;2023-04-15T08:19:54;96520.56;;;16.62;54.05
75146;BME280;63641;46.526;24.612;2023-04-15T08:22:21;96525.84;;;16.80;53.47
75146;BME280;63641;46.526;24.612;2023-04-15T08:24:48;96528.47;;;16.88;53.45
75146;BME280;63641;46.526;24.612;2023-04-15T08:27:15;96533.25;;;16.92;53.08
75146;BME280;63641;46.526;24.612;2023-04-15T08:29:42;96538.34;;;16.93;53.09
75146;BME280;63641;46.526;24.612;2023-04-15T08:32:09;96529.72;;;16.91;52.68
75146;BME280;63641;46.526;24.612;2023-04-15T08:34:36;96539.16;;;16.94;52.14
75146;BME280;63641;46.526;24.612;2023-04-15T08:37:03;96539.50;;;16.92;51.38
75146;BME280;63641;46.526;24.612;2023-04-15T08:39:30;96543.81;;;16.93;51.16
75146;BME280;63641;46.526;24.612;2023-04-15T08:42:01;96547.81;;;16.96;50.53
75146;BME280;63641;46.526;24.612;2023-04-15T08:44:29;96544.16;;;17.04;50.32
75146;BME280;63641;46.526;24.612;2023-04-15T08:47:00;96538.81;;;17.20;49.67
75146;BME280;63641;46.526;24.612;2023-04-15T08:49:28;96545.53;;;17.34;49.40
75146;BME280;63641;46.526;24.612;2023-04-15T08:51:58;96542.44;;;17.36;48.82
75146;BME280;63641;46.526;24.612;2023-04-15T08:54:26;96539.59;;;17.32;48.62
75146;BME280;63641;46.526;24.612;2023-04-15T08:56:53;96539.84;;;17.27;48.97
75146;BME280;63641;46.526;24.612;2023-04-15T08:59:20;96538.69;;;17.28;48.41
75146;BME280;63641;46.526;24.612;2023-04-15T09:01:48;96536.63;;;17.37;48.64
75146;BME280;63641;46.526;24.612;2023-04-15T09:04:17;96528.94;;;17.55;48.46
75146;BME280;63641;46.526;24.612;2023-04-15T09:06:44;96546.25;;;17.72;47.67
75146;BME280;63641;46.526;24.612;2023-04-15T09:09:11;96526.28;;;17.83;47.57
75146;BME280;63641;46.526;24.612;2023-04-15T09:11:40;96519.75;;;17.88;46.72
75146;BME280;63641;46.526;24.612;2023-04-15T09:14:07;96527.75;;;17.81;46.36
75146;BME280;63641;46.526;24.612;2023-04-15T09:16:57;96534.19;;;17.60;46.50
75146;BME280;63641;46.526;24.612;2023-04-15T09:19:24;96532.63;;;17.47;46.75
75146;BME280;63641;46.526;24.612;2023-04-15T09:21:54;96542.66;;;17.43;46.63
75146;BME280;63641;46.526;24.612;2023-04-15T09:24:28;96530.34;;;17.49;46.46
75146;BME280;63641;46.526;24.612;2023-04-15T09:26:59;96527.81;;;17.56;46.08
75146;BME280;63641;46.526;24.612;2023-04-15T09:29:26;96526.78;;;17.61;46.04
75146;BME280;63641;46.526;24.612;2023-04-15T09:31:53;96525.63;;;17.62;46.11
75146;BME280;63641;46.526;24.612;2023-04-15T09:34:20;96530.56;;;17.56;45.85
75146;BME280;63641;46.526;24.612;2023-04-15T09:36:54;96521.94;;;17.42;45.67
75146;BME280;63641;46.526;24.612;2023-04-15T09:39:22;96526.06;;;17.24;46.06
75146;BME280;63641;46.526;24.612;2023-04-15T09:42:07;96526.16;;;17.15;45.94
75146;BME280;63641;46.526;24.612;2023-04-15T09:44:34;96525.94;;;17.08;46.31
75146;BME280;63641;46.526;24.612;2023-04-15T09:47:01;96528.34;;;16.97;46.27
75146;BME280;63641;46.526;24.612;2023-04-15T09:49:27;96530.63;;;16.83;46.17
75146;BME280;63641;46.526;24.612;2023-04-15T09:52:01;96526.56;;;16.56;46.57
75146;BME280;63641;46.526;24.612;2023-04-15T09:54:36;96531.91;;;16.40;46.21
75146;BME280;63641;46.526;24.612;2023-04-15T09:57:07;96528.13;;;16.32;46.57
75146;BME280;63641;46.526;24.612;2023-04-15T09:59:35;96529.06;;;16.36;47.32
75146;BME280;63641;46.526;24.612;2023-04-15T10:02:05;96523.03;;;16.43;48.12
75146;BME280;63641;46.526;24.612;2023-04-15T10:04:35;96537.81;;;16.42;48.98
75146;BME280;63641;46.526;24.612;2023-04-15T10:07:07;96533.13;;;16.30;48.79
75146;BME280;63641;46.526;24.612;2023-04-15T10:09:35;96528.13;;;16.20;48.96
75146;BME280;63641;46.526;24.612;2023-04-15T10:12:04;96526.19;;;16.33;48.56
75146;BME280;63641;46.526;24.612;2023-04-15T10:14:33;96517.34;;;16.48;47.72
75146;BME280;63641;46.526;24.612;2023-04-15T10:17:01;96514.66;;;16.73;47.54
75146;BME280;63641;46.526;24.612;2023-04-15T10:21:54;96508.19;;;17.14;46.84
75146;BME280;63641;46.526;24.612;2023-04-15T10:24:22;96498.69;;;17.36;46.33
75146;BME280;63641;46.526;24.612;2023-04-15T10:26:53;96497.28;;;17.54;45.29
75146;BME280;63641;46.526;24.612;2023-04-15T10:29:22;96495.19;;;17.63;45.04
75146;BME280;63641;46.526;24.612;2023-04-15T10:31:54;96492.44;;;17.76;44.85
75146;BME280;63641;46.526;24.612;2023-04-15T10:34:24;96480.81;;;17.79;45.06
75146;BME280;63641;46.526;24.612;2023-04-15T10:37:03;96482.53;;;17.71;44.46
75146;BME280;63641;46.526;24.612;2023-04-15T10:42:08;96481.50;;;17.76;43.44
75146;BME280;63641;46.526;24.612;2023-04-15T10:44:40;96483.56;;;17.79;43.14
75146;BME280;63641;46.526;24.612;2023-04-15T10:47:13;96481.91;;;17.90;42.76
75146;BME280;63641;46.526;24.612;2023-04-15T10:49:45;96478.31;;;18.02;42.42
75146;BME280;63641;46.526;24.612;2023-04-15T10:52:15;96470.38;;;18.13;42.46
75146;BME280;63641;46.526;24.612;2023-04-15T10:54:42;96454.31;;;18.27;42.69
75146;BME280;63641;46.526;24.612;2023-04-15T10:57:15;96459.63;;;18.51;41.90
75146;BME280;63641;46.526;24.612;2023-04-15T11:02:38;96458.75;;;18.79;39.75
75146;BME280;63641;46.526;24.612;2023-04-15T11:05:06;96457.47;;;18.92;39.05
75146;BME280;63641;46.526;24.612;2023-04-15T11:07:50;96463.53;;;19.17;38.52
75146;BME280;63641;46.526;24.612;2023-04-15T11:12:50;96469.56;;;19.07;37.40
75146;BME280;63641;46.526;24.612;2023-04-15T11:18:09;96464.75;;;19.00;36.88
75146;BME280;63641;46.526;24.612;2023-04-15T11:20:38;96470.84;;;18.94;36.60
75146;BME280;63641;46.526;24.612;2023-04-15T11:23:05;96474.03;;;18.80;36.45
75146;BME280;63641;46.526;24.612;2023-04-15T11:25:40;96481.00;;;18.62;36.31
75146;BME280;63641;46.526;24.612;2023-04-15T11:28:07;96481.81;;;18.46;36.35
75146;BME280;63641;46.526;24.612;2023-04-15T11:30:35;96481.16;;;18.37;36.78
75146;BME280;63641;46.526;24.612;2023-04-15T11:33:07;96478.00;;;18.35;36.65
75146;BME280;63641;46.526;24.612;2023-04-15T11:35:35;96482.22;;;18.48;37.32
75146;BME280;63641;46.526;24.612;2023-04-15T11:38:08;96483.31;;;18.59;37.12
75146;BME280;63641;46.526;24.612;2023-04-15T11:40:36;96474.00;;;18.48;36.77
75146;BME280;63641;46.526;24.612;2023-04-15T11:43:10;96482.09;;;18.41;36.51
75146;BME280;63641;46.526;24.612;2023-04-15T11:45:56;96479.59;;;18.36;37.38
75146;BME280;63641;46.526;24.612;2023-04-15T11:48:31;96479.84;;;18.47;36.77
75146;BME280;63641;46.526;24.612;2023-04-15T11:51:03;96484.72;;;18.53;36.38
75146;BME280;63641;46.526;24.612;2023-04-15T11:53:49;96487.28;;;18.62;36.05
75146;BME280;63641;46.526;24.612;2023-04-15T11:56:21;96478.81;;;18.67;35.71
75146;BME280;63641;46.526;24.612;2023-04-15T11:58:56;96477.31;;;18.86;35.46
75146;BME280;63641;46.526;24.612;2023-04-15T12:01:36;96477.47;;;19.09;35.26
75146;BME280;63641;46.526;24.612;2023-04-15T12:04:13;96472.28;;;19.23;34.44
75146;BME280;63641;46.526;24.612;2023-04-15T12:06:41;96473.31;;;19.34;33.95
75146;BME280;63641;46.526;24.612;2023-04-15T12:09:10;96473.19;;;19.46;33.93
75146;BME280;63641;46.526;24.612;2023-04-15T12:11:50;96472.31;;;19.62;33.41
75146;BME280;63641;46.526;24.612;2023-04-15T12:14:29;96464.00;;;19.74;33.13
75146;BME280;63641;46.526;24.612;2023-04-15T12:17:00;96465.06;;;19.89;33.19
75146;BME280;63641;46.526;24.612;2023-04-15T12:22:02;96468.09;;;20.03;32.64
75146;BME280;63641;46.526;24.612;2023-04-15T12:24:31;96470.16;;;20.10;33.63
75146;BME280;63641;46.526;24.612;2023-04-15T12:27:03;96468.00;;;20.19;33.24
75146;BME280;63641;46.526;24.612;2023-04-15T12:29:32;96463.75;;;20.25;33.51
75146;BME280;63641;46.526;24.612;2023-04-15T12:32:08;96472.69;;;20.41;32.92
75146;BME280;63641;46.526;24.612;2023-04-15T12:34:38;96467.63;;;20.43;33.04
75146;BME280;63641;46.526;24.612;2023-04-15T12:37:08;96467.28;;;20.45;32.12
75146;BME280;63641;46.526;24.612;2023-04-15T12:39:40;96466.75;;;20.39;31.45
75146;BME280;63641;46.526;24.612;2023-04-15T12:42:08;96462.63;;;20.26;30.91
75146;BME280;63641;46.526;24.612;2023-04-15T12:44:36;96464.97;;;20.05;30.74
75146;BME280;63641;46.526;24.612;2023-04-15T12:47:03;96468.47;;;19.82;30.98
75146;BME280;63641;46.526;24.612;2023-04-15T12:49:30;96469.69;;;19.65;31.25
75146;BME280;63641;46.526;24.612;2023-04-15T12:52:00;96473.41;;;19.57;31.31
75146;BME280;63641;46.526;24.612;2023-04-15T12:54:29;96471.59;;;19.45;31.66
75146;BME280;63641;46.526;24.612;2023-04-15T12:56:56;96464.81;;;19.39;31.59
75146;BME280;63641;46.526;24.612;2023-04-15T12:59:24;96470.09;;;19.48;32.03
75146;BME280;63641;46.526;24.612;2023-04-15T13:01:53;96470.75;;;19.61;31.70
75146;BME280;63641;46.526;24.612;2023-04-15T13:04:20;96468.38;;;19.59;31.45
75146;BME280;63641;46.526;24.612;2023-04-15T13:06:47;96469.16;;;19.60;31.44
75146;BME280;63641;46.526;24.612;2023-04-15T13:09:14;96477.66;;;19.54;31.65
75146;BME280;63641;46.526;24.612;2023-04-15T13:11:42;96471.53;;;19.42;31.70
75146;BME280;63641;46.526;24.612;2023-04-15T13:14:09;96472.63;;;19.37;31.92
75146;BME280;63641;46.526;24.612;2023-04-15T13:16:39;96466.59;;;19.31;32.33